Doyle Atmospheric Data: 07/12/2019 Summary  Detailed Graphs  Station List

  Temperature     Wind Precipitation Visibility
Timestamp Air Wet
Bulb
Dew-
point
24-hr
Max
24-hr
Min
Relative
Humidity
Atmospheric
Pressure
Avg
Speed
Avg
Dir
Spot
Speed
Spot
Dir
Max
Speed
Max
Dir
  Rate Situation Start End 1 hr 3 hr 6 hr 12 hr 24 hr   Situation
Date Time °F °F °F °F °F % in Hg mph ° mph ° mph ° Y/N in/hr text Date Time Date Time in in in in in mi text
07/12/2019 12:04 AM 65.48 55.04 47.66 86.54 44.42 54.0 Not Reported 4.03 SE 5.59 SE 6.71 S No 0.000 No Precipitation 06/12/2019 08:05 PM 06/12/2019 08:24 PM 0.000 0.000 0.000 0.000 0.000 Not Reported Not Reported
07/12/2019 12:09 AM 61.70 53.96 48.02 86.54 44.42 60.0 Not Reported 3.80 S 4.03 S 6.71 S No 0.000 No Precipitation 06/12/2019 08:05 PM 06/12/2019 08:24 PM 0.000 0.000 0.000 0.000 0.000 Not Reported Not Reported
07/12/2019 12:14 AM 60.98 53.60 47.48 86.54 44.42 61.0 Not Reported 3.58 SE 3.58 SW 5.82 E No 0.000 No Precipitation 06/12/2019 08:05 PM 06/12/2019 08:24 PM 0.000 0.000 0.000 0.000 0.000 Not Reported Not Reported
07/12/2019 12:19 AM 60.08 53.24 47.84 86.54 44.42 63.0 Not Reported 3.80 S 3.13 S 5.82 E No 0.000 No Precipitation 06/12/2019 08:05 PM 06/12/2019 08:24 PM 0.000 0.000 0.000 0.000 0.000 Not Reported Not Reported
07/12/2019 12:24 AM 62.24 54.14 47.84 86.54 44.42 59.0 Not Reported 3.36 S 2.01 W 4.25 SW No 0.000 No Precipitation 06/12/2019 08:05 PM 06/12/2019 08:24 PM 0.000 0.000 0.000 0.000 0.000 Not Reported Not Reported
07/12/2019 12:29 AM 64.94 55.58 48.38 86.54 44.42 55.0 Not Reported 2.24 SW 3.58 W 4.25 SW No 0.000 No Precipitation 06/12/2019 08:05 PM 06/12/2019 08:24 PM 0.000 0.000 0.000 0.000 0.000 Not Reported Not Reported
07/12/2019 12:34 AM 63.68 54.68 47.48 86.54 44.42 55.0 Not Reported 4.70 SW 3.36 SW 5.82 W No 0.000 No Precipitation 06/12/2019 08:05 PM 06/12/2019 08:24 PM 0.000 0.000 0.000 0.000 0.000 Not Reported Not Reported
07/12/2019 12:39 AM 62.06 54.14 48.02 86.54 44.42 59.0 Not Reported 4.25 S 3.80 S 5.82 W No 0.000 No Precipitation 06/12/2019 08:05 PM 06/12/2019 08:24 PM 0.000 0.000 0.000 0.000 0.000 Not Reported Not Reported
07/12/2019 12:44 AM 60.62 53.24 47.12 86.54 44.42 60.0 Not Reported 3.80 S 2.68 SW 4.92 SW No 0.000 No Precipitation 06/12/2019 08:05 PM 06/12/2019 08:24 PM 0.000 0.000 0.000 0.000 0.000 Not Reported Not Reported
07/12/2019 12:49 AM 62.60 54.32 48.02 86.54 44.42 58.0 Not Reported 2.68 SW 1.79 SW 4.92 SW No 0.000 No Precipitation 06/12/2019 08:05 PM 06/12/2019 08:24 PM 0.000 0.000 0.000 0.000 0.000 Not Reported Not Reported
07/12/2019 12:54 AM 60.80 53.42 47.30 86.54 44.42 61.0 Not Reported 3.13 S 4.03 S 4.47 S No 0.000 No Precipitation 06/12/2019 08:05 PM 06/12/2019 08:24 PM 0.000 0.000 0.000 0.000 0.000 Not Reported Not Reported
07/12/2019 12:59 AM 59.54 52.88 47.48 86.54 44.42 64.0 Not Reported 3.13 S 1.34 S 4.47 S No 0.000 No Precipitation 06/12/2019 08:05 PM 06/12/2019 08:24 PM 0.000 0.000 0.000 0.000 0.000 Not Reported Not Reported
07/12/2019 01:04 AM 59.90 52.88 47.12 91.22 44.42 62.0 Not Reported 0.22 S 2.24 SE 4.03 S No 0.000 No Precipitation 06/12/2019 08:05 PM 06/12/2019 08:24 PM 0.000 0.000 0.000 0.000 0.000 Not Reported Not Reported
07/12/2019 01:09 AM 57.92 51.62 46.22 91.22 44.42 64.0 Not Reported 4.92 SE 5.14 SE 4.03 S No 0.000 No Precipitation 06/12/2019 08:05 PM 06/12/2019 08:24 PM 0.000 0.000 0.000 0.000 0.000 Not Reported Not Reported
07/12/2019 01:14 AM 55.76 50.54 45.86 91.22 44.42 68.0 Not Reported 3.13 SE 1.57 SE 5.59 SE No 0.000 No Precipitation 06/12/2019 08:05 PM 06/12/2019 08:24 PM 0.000 0.000 0.000 0.000 0.000 Not Reported Not Reported
07/12/2019 01:19 AM 55.40 50.54 46.22 91.22 44.42 70.0 Not Reported 0.00 N 0.45 SE 5.59 SE No 0.000 No Precipitation 06/12/2019 08:05 PM 06/12/2019 08:24 PM 0.000 0.000 0.000 0.000 0.000 Not Reported Not Reported
07/12/2019 01:24 AM 55.58 50.72 46.40 91.22 44.42 71.0 Not Reported 1.12 SE 0.67 E 3.80 SE No 0.000 No Precipitation 06/12/2019 08:05 PM 06/12/2019 08:24 PM 0.000 0.000 0.000 0.000 0.000 Not Reported Not Reported
07/12/2019 01:29 AM 56.48 51.08 46.58 91.22 44.42 69.0 Not Reported 0.67 SW 0.89 SW 3.80 SE No 0.000 No Precipitation 06/12/2019 08:05 PM 06/12/2019 08:24 PM 0.000 0.000 0.000 0.000 0.000 Not Reported Not Reported
07/12/2019 01:34 AM 57.38 51.80 47.12 91.22 44.42 68.0 Not Reported 1.34 SW 2.24 W 1.57 SW No 0.000 No Precipitation 06/12/2019 08:05 PM 06/12/2019 08:24 PM 0.000 0.000 0.000 0.000 0.000 Not Reported Not Reported
07/12/2019 01:39 AM 57.74 51.62 46.40 91.22 44.42 65.0 Not Reported 2.91 SW 2.68 S 1.57 SW No 0.000 No Precipitation 06/12/2019 08:05 PM 06/12/2019 08:24 PM 0.000 0.000 0.000 0.000 0.000 Not Reported Not Reported
07/12/2019 01:44 AM 58.64 51.98 46.58 91.22 44.42 64.0 Not Reported 1.79 SE 3.58 SE 3.36 SW No 0.000 No Precipitation 06/12/2019 08:05 PM 06/12/2019 08:24 PM 0.000 0.000 0.000 0.000 0.000 Not Reported Not Reported
07/12/2019 01:49 AM 57.56 51.62 46.58 91.22 44.42 66.0 Not Reported 3.58 E 4.25 E 3.36 SW No 0.000 No Precipitation 06/12/2019 08:05 PM 06/12/2019 08:24 PM 0.000 0.000 0.000 0.000 0.000 Not Reported Not Reported
07/12/2019 01:54 AM 54.86 49.64 44.96 91.22 44.42 69.0 Not Reported 3.80 SE 4.47 SE 4.25 E No 0.000 No Precipitation 06/12/2019 08:05 PM 06/12/2019 08:24 PM 0.000 0.000 0.000 0.000 0.000 Not Reported Not Reported
07/12/2019 01:59 AM 53.24 49.10 45.50 91.22 44.42 75.0 Not Reported 4.47 S 3.80 S 4.25 E No 0.000 No Precipitation 06/12/2019 08:05 PM 06/12/2019 08:24 PM 0.000 0.000 0.000 0.000 0.000 Not Reported Not Reported
07/12/2019 02:04 AM 53.42 49.64 46.22 91.22 44.42 76.0 Not Reported 3.58 S 4.25 S 4.70 SE No 0.000 No Precipitation 06/12/2019 08:05 PM 06/12/2019 08:24 PM 0.000 0.000 0.000 0.000 0.000 Not Reported Not Reported
07/12/2019 02:09 AM 53.78 49.82 46.22 91.22 44.42 75.0 Not Reported 4.25 S 3.58 S 4.70 SE No 0.000 No Precipitation 06/12/2019 08:05 PM 06/12/2019 08:24 PM 0.000 0.000 0.000 0.000 0.000 Not Reported Not Reported
07/12/2019 02:14 AM 54.50 50.18 46.40 91.22 44.42 73.0 Not Reported 2.91 S 3.36 SW 4.47 SW No 0.000 No Precipitation 06/12/2019 08:05 PM 06/12/2019 08:24 PM 0.000 0.000 0.000 0.000 0.000 Not Reported Not Reported
07/12/2019 02:19 AM 55.76 51.08 47.12 91.22 44.42 72.0 Not Reported 3.36 SW 4.03 SW 4.47 SW No 0.000 No Precipitation 06/12/2019 08:05 PM 06/12/2019 08:24 PM 0.000 0.000 0.000 0.000 0.000 Not Reported Not Reported
07/12/2019 02:24 AM 56.48 50.90 45.86 91.22 44.42 67.0 Not Reported 4.03 SW 3.58 SW 4.03 SW No 0.000 No Precipitation 06/12/2019 08:05 PM 06/12/2019 08:24 PM 0.000 0.000 0.000 0.000 0.000 Not Reported Not Reported
07/12/2019 02:29 AM 56.48 50.54 45.50 91.22 44.42 67.0 Not Reported 2.68 SW 1.12 W 4.03 SW No 0.000 No Precipitation 06/12/2019 08:05 PM 06/12/2019 08:24 PM 0.000 0.000 0.000 0.000 0.000 Not Reported Not Reported
07/12/2019 02:34 AM 56.48 50.72 45.68 91.22 44.42 67.0 Not Reported 3.13 SW 3.13 SW 4.25 SW No 0.000 No Precipitation 06/12/2019 08:05 PM 06/12/2019 08:24 PM 0.000 0.000 0.000 0.000 0.000 Not Reported Not Reported
07/12/2019 02:39 AM 55.04 49.82 44.96 91.22 44.42 68.0 Not Reported 2.46 SW 2.01 SW 4.25 SW No 0.000 No Precipitation 06/12/2019 08:05 PM 06/12/2019 08:24 PM 0.000 0.000 0.000 0.000 0.000 Not Reported Not Reported
07/12/2019 02:44 AM 54.50 49.64 45.32 91.22 44.42 71.0 Not Reported 1.57 NW 3.13 W 3.58 SW No 0.000 No Precipitation 06/12/2019 08:05 PM 06/12/2019 08:24 PM 0.000 0.000 0.000 0.000 0.000 Not Reported Not Reported
07/12/2019 02:49 AM 53.96 49.46 45.50 91.22 44.42 72.0 Not Reported 0.89 S 0.67 SW 3.58 SW No 0.000 No Precipitation 06/12/2019 08:05 PM 06/12/2019 08:24 PM 0.000 0.000 0.000 0.000 0.000 Not Reported Not Reported
07/12/2019 02:54 AM 53.42 49.28 45.68 91.22 44.42 74.0 Not Reported 0.89 SE 1.79 S 3.36 W No 0.000 No Precipitation 06/12/2019 08:05 PM 06/12/2019 08:24 PM 0.000 0.000 0.000 0.000 0.000 Not Reported Not Reported
07/12/2019 02:59 AM 53.06 49.10 44.96 91.22 44.42 73.0 Not Reported 0.67 SE 2.46 E 3.36 W No 0.000 No Precipitation 06/12/2019 08:05 PM 06/12/2019 08:24 PM 0.000 0.000 0.000 0.000 0.000 Not Reported Not Reported
07/12/2019 03:04 AM 53.60 49.28 45.14 91.22 44.42 72.0 Not Reported 2.68 E 1.79 NE 3.80 E No 0.000 No Precipitation 06/12/2019 08:05 PM 06/12/2019 08:24 PM 0.000 0.000 0.000 0.000 0.000 Not Reported Not Reported
07/12/2019 03:09 AM 55.04 49.64 44.96 91.22 44.42 68.0 Not Reported 2.01 E 2.91 E 3.80 E No 0.000 No Precipitation 06/12/2019 08:05 PM 06/12/2019 08:24 PM 0.000 0.000 0.000 0.000 0.000 Not Reported Not Reported
07/12/2019 03:14 AM 53.96 49.10 44.78 91.22 44.42 70.0 Not Reported 2.01 E 0.00 E 3.36 E No 0.000 No Precipitation 06/12/2019 08:05 PM 06/12/2019 08:24 PM 0.000 0.000 0.000 0.000 0.000 Not Reported Not Reported
07/12/2019 03:19 AM 54.14 49.28 44.96 91.22 44.42 70.0 Not Reported 0.22 N 0.00 N 3.36 E No 0.000 No Precipitation 06/12/2019 08:05 PM 06/12/2019 08:24 PM 0.000 0.000 0.000 0.000 0.000 Not Reported Not Reported
07/12/2019 03:24 AM 53.78 49.10 44.96 91.22 44.42 71.0 Not Reported 1.12 E 1.79 E 2.46 E No 0.000 No Precipitation 06/12/2019 08:05 PM 06/12/2019 08:24 PM 0.000 0.000 0.000 0.000 0.000 Not Reported Not Reported
07/12/2019 03:29 AM 54.14 49.46 45.14 91.22 44.42 71.0 Not Reported 2.24 E 1.12 E 2.46 E No 0.000 No Precipitation 06/12/2019 08:05 PM 06/12/2019 08:24 PM 0.000 0.000 0.000 0.000 0.000 Not Reported Not Reported
07/12/2019 03:34 AM 53.60 49.10 44.96 91.22 44.42 72.0 Not Reported 2.46 SE 2.91 E 2.46 E No 0.000 No Precipitation 06/12/2019 08:05 PM 06/12/2019 08:24 PM 0.000 0.000 0.000 0.000 0.000 Not Reported Not Reported
07/12/2019 03:39 AM 52.88 48.56 44.78 91.22 44.42 73.0 Not Reported 3.36 SE 4.03 SE 2.46 E No 0.000 No Precipitation 06/12/2019 08:05 PM 06/12/2019 08:24 PM 0.000 0.000 0.000 0.000 0.000 Not Reported Not Reported
07/12/2019 03:44 AM 51.80 47.48 43.52 91.22 44.42 72.0 Not Reported 4.47 SE 5.37 S 4.47 SE No 0.000 No Precipitation 06/12/2019 08:05 PM 06/12/2019 08:24 PM 0.000 0.000 0.000 0.000 0.000 Not Reported Not Reported
07/12/2019 03:49 AM 50.72 47.48 44.60 91.22 44.42 79.0 Not Reported 4.92 S 5.59 S 4.47 SE No 0.000 No Precipitation 06/12/2019 08:05 PM 06/12/2019 08:24 PM 0.000 0.000 0.000 0.000 0.000 Not Reported Not Reported
07/12/2019 03:54 AM 51.62 48.20 45.14 91.22 44.42 78.0 Not Reported 5.82 S 5.59 S 5.82 S No 0.000 No Precipitation 06/12/2019 08:05 PM 06/12/2019 08:24 PM 0.000 0.000 0.000 0.000 0.000 Not Reported Not Reported
07/12/2019 03:59 AM 50.36 47.12 44.06 91.22 44.42 78.0 Not Reported 4.70 S 4.70 S 5.82 S No 0.000 No Precipitation 06/12/2019 08:05 PM 06/12/2019 08:24 PM 0.000 0.000 0.000 0.000 0.000 Not Reported Not Reported
07/12/2019 04:04 AM 50.36 47.30 44.60 91.22 44.42 80.0 Not Reported 3.58 S 3.36 S 6.04 S No 0.000 No Precipitation 06/12/2019 08:05 PM 06/12/2019 08:24 PM 0.000 0.000 0.000 0.000 0.000 Not Reported Not Reported
07/12/2019 04:09 AM 49.82 46.76 44.06 91.22 44.42 80.0 Not Reported 2.91 S 2.91 S 6.04 S No 0.000 No Precipitation 06/12/2019 08:05 PM 06/12/2019 08:24 PM 0.000 0.000 0.000 0.000 0.000 Not Reported Not Reported
07/12/2019 04:14 AM 51.26 48.02 44.96 91.22 44.42 79.0 Not Reported 2.91 S 2.91 S 3.80 S No 0.000 No Precipitation 06/12/2019 08:05 PM 06/12/2019 08:24 PM 0.000 0.000 0.000 0.000 0.000 Not Reported Not Reported
07/12/2019 04:19 AM 52.34 48.56 45.14 91.22 44.42 76.0 Not Reported 3.58 S 3.80 S 3.80 S No 0.000 No Precipitation 06/12/2019 08:05 PM 06/12/2019 08:24 PM 0.000 0.000 0.000 0.000 0.000 Not Reported Not Reported
07/12/2019 04:24 AM 50.54 47.30 44.24 91.22 44.42 78.0 Not Reported 4.92 SE 4.70 S 4.70 SE No 0.000 No Precipitation 06/12/2019 08:05 PM 06/12/2019 08:24 PM 0.000 0.000 0.000 0.000 0.000 Not Reported Not Reported
07/12/2019 04:29 AM 50.36 46.94 43.88 91.22 44.42 78.0 Not Reported 4.47 S 4.03 S 4.70 SE No 0.000 No Precipitation 06/12/2019 08:05 PM 06/12/2019 08:24 PM 0.000 0.000 0.000 0.000 0.000 Not Reported Not Reported
07/12/2019 04:34 AM 50.72 47.48 44.60 91.22 44.42 79.0 Not Reported 3.36 S 3.80 SE 4.92 SE No 0.000 No Precipitation 06/12/2019 08:05 PM 06/12/2019 08:24 PM 0.000 0.000 0.000 0.000 0.000 Not Reported Not Reported
07/12/2019 04:39 AM 50.90 47.66 44.78 91.22 44.42 79.0 Not Reported 3.80 S 3.80 S 4.92 SE No 0.000 No Precipitation 06/12/2019 08:05 PM 06/12/2019 08:24 PM 0.000 0.000 0.000 0.000 0.000 Not Reported Not Reported
07/12/2019 04:44 AM 50.72 47.66 44.78 91.22 44.42 79.0 Not Reported 3.58 S 2.91 S 4.25 S No 0.000 No Precipitation 06/12/2019 08:05 PM 06/12/2019 08:24 PM 0.000 0.000 0.000 0.000 0.000 Not Reported Not Reported
07/12/2019 04:49 AM 51.26 47.84 44.60 91.22 44.42 77.0 Not Reported 2.68 SE 2.24 SE 4.25 S No 0.000 No Precipitation 06/12/2019 08:05 PM 06/12/2019 08:24 PM 0.000 0.000 0.000 0.000 0.000 Not Reported Not Reported
07/12/2019 04:54 AM 50.72 47.30 44.42 91.22 44.42 78.0 Not Reported 3.13 SE 3.13 S 4.03 S No 0.000 No Precipitation 06/12/2019 08:05 PM 06/12/2019 08:24 PM 0.000 0.000 0.000 0.000 0.000 Not Reported Not Reported
07/12/2019 04:59 AM 50.00 46.94 44.06 91.22 44.42 79.0 Not Reported 2.46 S 2.46 S 4.03 S No 0.000 No Precipitation 06/12/2019 08:05 PM 06/12/2019 08:24 PM 0.000 0.000 0.000 0.000 0.000 Not Reported Not Reported
07/12/2019 05:04 AM 50.72 47.84 45.14 91.22 44.42 81.0 Not Reported 2.24 S 2.68 SW 3.58 S No 0.000 No Precipitation 06/12/2019 08:05 PM 06/12/2019 08:24 PM 0.000 0.000 0.000 0.000 0.000 Not Reported Not Reported
07/12/2019 05:09 AM 50.90 47.84 45.14 91.22 44.42 80.0 Not Reported 0.89 SW 0.45 S 3.58 S No 0.000 No Precipitation 06/12/2019 08:05 PM 06/12/2019 08:24 PM 0.000 0.000 0.000 0.000 0.000 Not Reported Not Reported
07/12/2019 05:14 AM 50.90 47.66 44.78 91.22 44.42 79.0 Not Reported 1.57 SW 1.79 SE 2.91 SW No 0.000 No Precipitation 06/12/2019 08:05 PM 06/12/2019 08:24 PM 0.000 0.000 0.000 0.000 0.000 Not Reported Not Reported
07/12/2019 05:19 AM 51.26 48.02 45.14 91.22 44.42 79.0 Not Reported 1.79 SW 2.91 SW 2.91 SW No 0.000 No Precipitation 06/12/2019 08:05 PM 06/12/2019 08:24 PM 0.000 0.000 0.000 0.000 0.000 Not Reported Not Reported
07/12/2019 05:24 AM 50.36 47.30 44.42 91.22 44.42 79.0 Not Reported 3.13 S 3.58 S 3.36 SW No 0.000 No Precipitation 06/12/2019 08:05 PM 06/12/2019 08:24 PM 0.000 0.000 0.000 0.000 0.000 Not Reported Not Reported
07/12/2019 05:29 AM 48.92 46.40 44.06 91.22 44.42 82.0 Not Reported 4.70 S 4.92 S 3.36 SW No 0.000 No Precipitation 06/12/2019 08:05 PM 06/12/2019 08:24 PM 0.000 0.000 0.000 0.000 0.000 Not Reported Not Reported
07/12/2019 05:34 AM 49.46 46.94 44.78 91.22 44.42 83.0 Not Reported 5.37 S 5.82 SE 5.14 S No 0.000 No Precipitation 06/12/2019 08:05 PM 06/12/2019 08:24 PM 0.000 0.000 0.000 0.000 0.000 Not Reported Not Reported
07/12/2019 05:39 AM 52.16 48.74 45.32 91.22 44.42 77.0 Not Reported 4.25 SE 4.03 SE 5.14 S No 0.000 No Precipitation 06/12/2019 08:05 PM 06/12/2019 08:24 PM 0.000 0.000 0.000 0.000 0.000 Not Reported Not Reported
07/12/2019 05:44 AM 52.52 48.56 45.14 91.22 44.42 76.0 Not Reported 2.91 SE 2.46 SE 6.04 SE No 0.000 No Precipitation 06/12/2019 08:05 PM 06/12/2019 08:24 PM 0.000 0.000 0.000 0.000 0.000 Not Reported Not Reported
07/12/2019 05:49 AM 51.98 48.02 44.42 91.22 44.42 75.0 Not Reported 3.58 SE 3.58 SE 6.04 SE No 0.000 No Precipitation 06/12/2019 08:05 PM 06/12/2019 08:24 PM 0.000 0.000 0.000 0.000 0.000 Not Reported Not Reported
07/12/2019 05:54 AM 50.00 46.76 43.70 91.22 44.42 78.0 Not Reported 2.68 SE 2.24 SE 4.03 SE No 0.000 No Precipitation 06/12/2019 08:05 PM 06/12/2019 08:24 PM 0.000 0.000 0.000 0.000 0.000 Not Reported Not Reported
07/12/2019 05:59 AM 48.56 46.22 43.70 91.22 44.42 83.0 Not Reported 2.24 SE 3.13 SE 4.03 SE No 0.000 No Precipitation 06/12/2019 08:05 PM 06/12/2019 08:24 PM 0.000 0.000 0.000 0.000 0.000 Not Reported Not Reported
07/12/2019 06:04 AM 48.02 45.32 42.80 91.22 44.42 81.0 Not Reported 3.36 SE 2.68 SE 3.58 SE No 0.000 No Precipitation 06/12/2019 08:05 PM 06/12/2019 08:24 PM 0.000 0.000 0.000 0.000 0.000 Not Reported Not Reported
07/12/2019 06:09 AM 48.56 45.86 43.34 91.22 44.42 82.0 Not Reported 3.36 SE 4.25 SE 3.58 SE No 0.000 No Precipitation 06/12/2019 08:05 PM 06/12/2019 08:24 PM 0.000 0.000 0.000 0.000 0.000 Not Reported Not Reported
07/12/2019 06:14 AM 48.38 46.22 43.88 91.22 44.42 84.0 Not Reported 4.03 SE 4.47 SE 4.70 SE No 0.000 No Precipitation 06/12/2019 08:05 PM 06/12/2019 08:24 PM 0.000 0.000 0.000 0.000 0.000 Not Reported Not Reported
07/12/2019 06:19 AM 48.92 46.04 43.16 91.22 44.42 80.0 Not Reported 4.03 S 4.03 S 4.70 SE No 0.000 No Precipitation 06/12/2019 08:05 PM 06/12/2019 08:24 PM 0.000 0.000 0.000 0.000 0.000 Not Reported Not Reported
07/12/2019 06:24 AM 49.82 46.76 43.88 91.22 44.42 79.0 Not Reported 4.47 S 4.03 S 4.92 SE No 0.000 No Precipitation 06/12/2019 08:05 PM 06/12/2019 08:24 PM 0.000 0.000 0.000 0.000 0.000 Not Reported Not Reported
07/12/2019 06:29 AM 49.46 46.94 44.60 91.22 44.42 83.0 Not Reported 2.68 S 2.68 S 4.92 SE No 0.000 No Precipitation 06/12/2019 08:05 PM 06/12/2019 08:24 PM 0.000 0.000 0.000 0.000 0.000 Not Reported Not Reported
07/12/2019 06:34 AM 49.64 46.76 44.06 91.22 44.42 81.0 Not Reported 2.46 S 2.91 S 4.92 S No 0.000 No Precipitation 06/12/2019 08:05 PM 06/12/2019 08:24 PM 0.000 0.000 0.000 0.000 0.000 Not Reported Not Reported
07/12/2019 06:39 AM 51.62 48.38 45.32 91.22 44.42 79.0 Not Reported 2.46 S 2.68 S 4.92 S No 0.000 No Precipitation 06/12/2019 08:05 PM 06/12/2019 08:24 PM 0.000 0.000 0.000 0.000 0.000 Not Reported Not Reported
07/12/2019 06:44 AM 54.32 49.82 46.40 91.22 44.42 73.0 Not Reported 3.13 S 3.58 S 2.91 S No 0.000 No Precipitation 06/12/2019 08:05 PM 06/12/2019 08:24 PM 0.000 0.000 0.000 0.000 0.000 Not Reported Not Reported
07/12/2019 06:49 AM 53.42 49.10 45.14 91.22 44.42 73.0 Not Reported 5.14 SE 4.92 SE 2.91 S No 0.000 No Precipitation 06/12/2019 08:05 PM 06/12/2019 08:24 PM 0.000 0.000 0.000 0.000 0.000 Not Reported Not Reported
07/12/2019 06:54 AM 53.06 48.74 45.14 91.22 44.42 74.0 Not Reported 4.03 S 3.58 S 5.82 SE No 0.000 No Precipitation 06/12/2019 08:05 PM 06/12/2019 08:24 PM 0.000 0.000 0.000 0.000 0.000 Not Reported Not Reported
07/12/2019 06:59 AM 52.52 48.56 45.14 91.22 44.42 75.0 Not Reported 2.91 SE 2.91 SE 5.82 SE No 0.000 No Precipitation 06/12/2019 08:05 PM 06/12/2019 08:24 PM 0.000 0.000 0.000 0.000 0.000 Not Reported Not Reported
07/12/2019 07:04 AM 51.98 48.38 44.96 91.22 44.42 76.0 Not Reported 3.13 SE 4.03 SE 4.25 S No 0.000 No Precipitation 06/12/2019 08:05 PM 06/12/2019 08:24 PM 0.000 0.000 0.000 0.000 0.000 Not Reported Not Reported
07/12/2019 07:09 AM 49.82 46.94 44.24 91.22 44.42 80.0 Not Reported 4.47 SE 5.59 SE 4.25 S No 0.000 No Precipitation 06/12/2019 08:05 PM 06/12/2019 08:24 PM 0.000 0.000 0.000 0.000 0.000 Not Reported Not Reported
07/12/2019 07:14 AM 48.20 45.68 43.16 91.22 44.42 82.0 Not Reported 4.03 SE 3.36 SE 5.82 SE No 0.000 No Precipitation 06/12/2019 08:05 PM 06/12/2019 08:24 PM 0.000 0.000 0.000 0.000 0.000 Not Reported Not Reported
07/12/2019 07:19 AM 47.84 45.68 43.52 91.22 44.42 84.0 Not Reported 4.25 SE 4.03 SE 5.82 SE No 0.000 No Precipitation 06/12/2019 08:05 PM 06/12/2019 08:24 PM 0.000 0.000 0.000 0.000 0.000 Not Reported Not Reported
07/12/2019 07:24 AM 47.84 45.86 43.70 91.22 44.42 85.0 Not Reported 3.36 SE 3.36 SE 4.70 SE No 0.000 No Precipitation 06/12/2019 08:05 PM 06/12/2019 08:24 PM 0.000 0.000 0.000 0.000 0.000 Not Reported Not Reported
07/12/2019 07:29 AM 48.56 46.40 44.42 91.22 44.42 85.0 Not Reported 4.03 SE 4.47 S 4.70 SE No 0.000 No Precipitation 06/12/2019 08:05 PM 06/12/2019 08:24 PM 0.000 0.000 0.000 0.000 0.000 Not Reported Not Reported
07/12/2019 07:34 AM 49.10 46.76 44.60 91.22 44.42 84.0 Not Reported 4.47 SE 4.92 SE 4.47 S No 0.000 No Precipitation 06/12/2019 08:05 PM 06/12/2019 08:24 PM 0.000 0.000 0.000 0.000 0.000 Not Reported Not Reported
07/12/2019 07:39 AM 50.00 47.66 45.68 91.22 44.42 85.0 Not Reported 5.14 S 4.70 S 4.47 S No 0.000 No Precipitation 06/12/2019 08:05 PM 06/12/2019 08:24 PM 0.000 0.000 0.000 0.000 0.000 Not Reported Not Reported
07/12/2019 07:44 AM 51.44 48.92 46.58 91.22 44.42 83.0 Not Reported 4.25 S 4.25 SE 5.14 SE No 0.000 No Precipitation 06/12/2019 08:05 PM 06/12/2019 08:24 PM 0.000 0.000 0.000 0.000 0.000 Not Reported Not Reported
07/12/2019 07:49 AM 53.24 50.00 47.30 91.22 44.42 80.0 Not Reported 4.03 S 3.36 S 5.14 SE No 0.000 No Precipitation 06/12/2019 08:05 PM 06/12/2019 08:24 PM 0.000 0.000 0.000 0.000 0.000 Not Reported Not Reported
07/12/2019 07:54 AM 54.50 50.72 47.48 91.22 44.42 77.0 Not Reported 3.58 S 3.80 S 4.70 S No 0.000 No Precipitation 06/12/2019 08:05 PM 06/12/2019 08:24 PM 0.000 0.000 0.000 0.000 0.000 Not Reported Not Reported
07/12/2019 07:59 AM 55.58 51.44 48.02 91.22 44.42 75.0 Not Reported 3.80 S 3.80 S 4.70 S No 0.000 No Precipitation 06/12/2019 08:05 PM 06/12/2019 08:24 PM 0.000 0.000 0.000 0.000 0.000 Not Reported Not Reported
07/12/2019 08:04 AM 56.66 51.98 48.02 91.22 44.42 73.0 Not Reported 3.58 S 4.47 S 4.03 S No 0.000 No Precipitation 06/12/2019 08:05 PM 06/12/2019 08:24 PM 0.000 0.000 0.000 0.000 0.000 Not Reported Not Reported
07/12/2019 08:09 AM 57.02 51.98 48.02 91.22 44.42 72.0 Not Reported 4.70 S 5.14 S 4.03 S No 0.000 No Precipitation 06/12/2019 08:05 PM 06/12/2019 08:24 PM 0.000 0.000 0.000 0.000 0.000 Not Reported Not Reported
07/12/2019 08:14 AM 57.20 52.52 48.92 91.22 44.42 73.0 Not Reported 4.25 S 3.58 S 5.14 S No 0.000 No Precipitation 06/12/2019 08:05 PM 06/12/2019 08:24 PM 0.000 0.000 0.000 0.000 0.000 Not Reported Not Reported
07/12/2019 08:19 AM 57.92 53.06 49.10 91.22 44.42 72.0 Not Reported 3.80 S 4.47 SE 5.14 S No 0.000 No Precipitation 06/12/2019 08:05 PM 06/12/2019 08:24 PM 0.000 0.000 0.000 0.000 0.000 Not Reported Not Reported
07/12/2019 08:24 AM 58.64 53.60 49.46 91.22 44.42 71.0 Not Reported 3.58 S 2.91 S 4.47 SE No 0.000 No Precipitation 06/12/2019 08:05 PM 06/12/2019 08:24 PM 0.000 0.000 0.000 0.000 0.000 Not Reported Not Reported
07/12/2019 08:29 AM 60.08 54.32 49.82 91.22 44.42 68.0 Not Reported 2.46 S 2.01 S 4.47 SE No 0.000 No Precipitation 06/12/2019 08:05 PM 06/12/2019 08:24 PM 0.000 0.000 0.000 0.000 0.000 Not Reported Not Reported
07/12/2019 08:34 AM 61.88 55.22 50.00 91.22 44.42 64.0 Not Reported 2.91 S 2.91 S 3.80 S No 0.000 No Precipitation 06/12/2019 08:05 PM 06/12/2019 08:24 PM 0.000 0.000 0.000 0.000 0.000 Not Reported Not Reported
07/12/2019 08:39 AM 62.78 55.04 49.10 91.22 44.42 60.0 Not Reported 2.24 S 1.57 S 3.80 S No 0.000 No Precipitation 06/12/2019 08:05 PM 06/12/2019 08:24 PM 0.000 0.000 0.000 0.000 0.000 Not Reported Not Reported
07/12/2019 08:44 AM 63.86 55.94 50.00 91.22 44.42 60.0 Not Reported 2.46 S 1.34 S 3.80 SW No 0.000 No Precipitation 06/12/2019 08:05 PM 06/12/2019 08:24 PM 0.000 0.000 0.000 0.000 0.000 Not Reported Not Reported
07/12/2019 08:49 AM 65.30 56.48 50.18 91.22 44.42 58.0 Not Reported 1.57 SE 1.12 S 3.80 SW No 0.000 No Precipitation 06/12/2019 08:05 PM 06/12/2019 08:24 PM 0.000 0.000 0.000 0.000 0.000 Not Reported Not Reported
07/12/2019 08:54 AM 66.74 57.56 50.90 91.22 44.42 56.0 Not Reported 0.67 SW 0.22 S 2.91 S No 0.000 No Precipitation 06/12/2019 08:05 PM 06/12/2019 08:24 PM 0.000 0.000 0.000 0.000 0.000 Not Reported Not Reported
07/12/2019 08:59 AM 67.46 56.84 49.10 91.22 44.42 51.0 Not Reported 2.68 SE 0.89 SW 2.91 S No 0.000 No Precipitation 06/12/2019 08:05 PM 06/12/2019 08:24 PM 0.000 0.000 0.000 0.000 0.000 Not Reported Not Reported
07/12/2019 09:04 AM 68.36 58.28 51.08 91.22 44.42 53.0 Not Reported 2.01 SW 1.34 W 3.80 S No 0.000 No Precipitation 06/12/2019 08:05 PM 06/12/2019 08:24 PM 0.000 0.000 0.000 0.000 0.000 Not Reported Not Reported
07/12/2019 09:09 AM 69.08 57.56 48.92 91.22 44.42 48.0 Not Reported 0.89 S 0.45 NE 3.80 S No 0.000 No Precipitation 06/12/2019 08:05 PM 06/12/2019 08:24 PM 0.000 0.000 0.000 0.000 0.000 Not Reported Not Reported
07/12/2019 09:14 AM 69.80 58.82 51.08 91.22 44.42 51.0 Not Reported 2.46 SE 2.91 E 3.13 SW No 0.000 No Precipitation 06/12/2019 08:05 PM 06/12/2019 08:24 PM 0.000 0.000 0.000 0.000 0.000 Not Reported Not Reported
07/12/2019 09:19 AM 70.70 58.10 48.74 91.22 44.42 45.0 Not Reported 2.46 SE 1.79 SE 3.13 SW No 0.000 No Precipitation 06/12/2019 08:05 PM 06/12/2019 08:24 PM 0.000 0.000 0.000 0.000 0.000 Not Reported Not Reported
07/12/2019 09:24 AM 71.42 58.64 49.64 91.22 44.42 46.0 Not Reported 3.36 SE 2.24 E 3.80 SE No 0.000 No Precipitation 06/12/2019 08:05 PM 06/12/2019 08:24 PM 0.000 0.000 0.000 0.000 0.000 Not Reported Not Reported
07/12/2019 09:29 AM 71.42 57.92 48.02 91.22 44.42 43.0 Not Reported 4.25 SE 2.68 SE 3.80 SE No 0.000 No Precipitation 06/12/2019 08:05 PM 06/12/2019 08:24 PM 0.000 0.000 0.000 0.000 0.000 Not Reported Not Reported
07/12/2019 09:34 AM 71.42 57.74 47.48 91.22 44.42 42.0 Not Reported 4.92 E 3.36 SE 4.92 SE No 0.000 No Precipitation 06/12/2019 08:05 PM 06/12/2019 08:24 PM 0.000 0.000 0.000 0.000 0.000 Not Reported Not Reported
07/12/2019 09:39 AM 72.32 58.28 47.84 91.22 44.42 41.0 Not Reported 4.03 E 3.13 SE 4.92 SE No 0.000 No Precipitation 06/12/2019 08:05 PM 06/12/2019 08:24 PM 0.000 0.000 0.000 0.000 0.000 Not Reported Not Reported
07/12/2019 09:44 AM 73.04 58.10 46.76 91.22 44.42 39.0 Not Reported 2.24 E 2.68 E 5.82 E No 0.000 No Precipitation 06/12/2019 08:05 PM 06/12/2019 08:24 PM 0.000 0.000 0.000 0.000 0.000 Not Reported Not Reported
07/12/2019 09:49 AM 73.40 58.28 46.76 91.22 44.42 38.0 Not Reported 2.24 NE 2.01 E 5.82 E No 0.000 No Precipitation 06/12/2019 08:05 PM 06/12/2019 08:24 PM 0.000 0.000 0.000 0.000 0.000 Not Reported Not Reported
07/12/2019 09:54 AM 73.94 57.92 45.68 91.22 44.42 36.0 Not Reported 1.79 E 2.01 E 3.36 E No 0.000 No Precipitation 06/12/2019 08:05 PM 06/12/2019 08:24 PM 0.000 0.000 0.000 0.000 0.000 Not Reported Not Reported
07/12/2019 09:59 AM 74.48 58.10 45.68 91.22 44.42 35.0 Not Reported 0.45 SE 0.00 S 3.36 E No 0.000 No Precipitation 06/12/2019 08:05 PM 06/12/2019 08:24 PM 0.000 0.000 0.000 0.000 0.000 Not Reported Not Reported
07/12/2019 10:04 AM 75.20 58.64 46.04 91.22 44.42 35.0 Not Reported 0.67 NE 0.00 N 2.46 E No 0.000 No Precipitation 06/12/2019 08:05 PM 06/12/2019 08:24 PM 0.000 0.000 0.000 0.000 0.000 Not Reported Not Reported
07/12/2019 10:09 AM 76.10 59.54 47.30 91.22 44.42 36.0 Not Reported 0.22 SE 1.12 E 2.46 E No 0.000 No Precipitation 06/12/2019 08:05 PM 06/12/2019 08:24 PM 0.000 0.000 0.000 0.000 0.000 Not Reported Not Reported
07/12/2019 10:14 AM 75.74 59.00 46.58 91.22 44.42 35.0 Not Reported 1.57 NE 1.57 NE 1.79 N No 0.000 No Precipitation 06/12/2019 08:05 PM 06/12/2019 08:24 PM 0.000 0.000 0.000 0.000 0.000 Not Reported Not Reported
07/12/2019 10:19 AM 75.92 58.64 45.32 91.22 44.42 33.0 Not Reported 0.45 NE 1.12 NE 1.79 N No 0.000 No Precipitation 06/12/2019 08:05 PM 06/12/2019 08:24 PM 0.000 0.000 0.000 0.000 0.000 Not Reported Not Reported
07/12/2019 10:24 AM 76.82 59.54 46.58 91.22 44.42 34.0 Not Reported 0.45 NE 0.89 E 2.46 NE No 0.000 No Precipitation 06/12/2019 08:05 PM 06/12/2019 08:24 PM 0.000 0.000 0.000 0.000 0.000 Not Reported Not Reported
07/12/2019 10:29 AM 76.82 59.36 46.40 91.22 44.42 34.0 Not Reported 2.01 NW 1.57 NW 2.46 NE No 0.000 No Precipitation 06/12/2019 08:05 PM 06/12/2019 08:24 PM 0.000 0.000 0.000 0.000 0.000 Not Reported Not Reported
07/12/2019 10:34 AM 76.64 59.00 45.68 91.22 44.42 33.0 Not Reported 2.01 N 2.24 N 2.91 W No 0.000 No Precipitation 06/12/2019 08:05 PM 06/12/2019 08:24 PM 0.000 0.000 0.000 0.000 0.000 Not Reported Not Reported
07/12/2019 10:39 AM 77.18 59.54 46.40 91.22 44.42 33.0 Not Reported 2.24 NE 2.91 NE 2.91 W No 0.000 No Precipitation 06/12/2019 08:05 PM 06/12/2019 08:24 PM 0.000 0.000 0.000 0.000 0.000 Not Reported Not Reported
07/12/2019 10:44 AM 77.54 59.36 45.68 91.22 44.42 32.0 Not Reported 2.24 N 1.34 N 3.58 N No 0.000 No Precipitation 06/12/2019 08:05 PM 06/12/2019 08:24 PM 0.000 0.000 0.000 0.000 0.000 Not Reported Not Reported
07/12/2019 10:49 AM 77.72 59.54 46.04 91.22 44.42 32.0 Not Reported 1.57 NW 1.12 NW 3.58 N No 0.000 No Precipitation 06/12/2019 08:05 PM 06/12/2019 08:24 PM 0.000 0.000 0.000 0.000 0.000 Not Reported Not Reported
07/12/2019 10:54 AM 77.72 59.36 45.50 91.22 44.42 31.0 Not Reported 2.91 NW 2.24 NW 3.80 N No 0.000 No Precipitation 06/12/2019 08:05 PM 06/12/2019 08:24 PM 0.000 0.000 0.000 0.000 0.000 Not Reported Not Reported
07/12/2019 10:59 AM 77.72 59.36 45.68 91.22 44.42 32.0 Not Reported 2.68 N 1.34 N 3.80 N No 0.000 No Precipitation 06/12/2019 08:05 PM 06/12/2019 08:24 PM 0.000 0.000 0.000 0.000 0.000 Not Reported Not Reported
07/12/2019 11:04 AM 79.34 59.54 44.60 91.22 44.42 29.0 Not Reported 2.68 N 1.34 NW 3.58 NW No 0.000 No Precipitation 06/12/2019 08:05 PM 06/12/2019 08:24 PM 0.000 0.000 0.000 0.000 0.000 Not Reported Not Reported
07/12/2019 11:09 AM 80.06 60.08 44.96 91.22 44.42 29.0 Not Reported 0.22 N 0.67 SW 3.58 NW No 0.000 No Precipitation 06/12/2019 08:05 PM 06/12/2019 08:24 PM 0.000 0.000 0.000 0.000 0.000 Not Reported Not Reported
07/12/2019 11:14 AM 80.60 60.62 45.86 91.22 44.42 29.0 Not Reported 2.24 NE 0.22 NE 3.13 NW No 0.000 No Precipitation 06/12/2019 08:05 PM 06/12/2019 08:24 PM 0.000 0.000 0.000 0.000 0.000 Not Reported Not Reported
07/12/2019 11:19 AM 80.42 59.90 44.42 91.22 44.42 28.0 Not Reported 2.68 N 2.01 N 3.13 NW No 0.000 No Precipitation 06/12/2019 08:05 PM 06/12/2019 08:24 PM 0.000 0.000 0.000 0.000 0.000 Not Reported Not Reported
07/12/2019 11:24 AM 80.42 60.08 44.96 91.22 44.42 28.0 Not Reported 2.01 W 2.46 E 4.03 N No 0.000 No Precipitation 06/12/2019 08:05 PM 06/12/2019 08:24 PM 0.000 0.000 0.000 0.000 0.000 Not Reported Not Reported
07/12/2019 11:29 AM 81.50 60.62 44.96 91.22 44.42 27.0 Not Reported 1.12 NE 3.58 N 4.03 N No 0.000 No Precipitation 06/12/2019 08:05 PM 06/12/2019 08:24 PM 0.000 0.000 0.000 0.000 0.000 Not Reported Not Reported
07/12/2019 11:34 AM 80.24 59.90 44.60 91.22 44.42 28.0 Not Reported 4.25 NW 2.01 N 3.58 N No 0.000 No Precipitation 06/12/2019 08:05 PM 06/12/2019 08:24 PM 0.000 0.000 0.000 0.000 0.000 Not Reported Not Reported
07/12/2019 11:39 AM 81.32 60.44 44.60 91.22 44.42 27.0 Not Reported 0.67 N 1.79 NE 3.58 N No 0.000 No Precipitation 06/12/2019 08:05 PM 06/12/2019 08:24 PM 0.000 0.000 0.000 0.000 0.000 Not Reported Not Reported
07/12/2019 11:44 AM 80.60 59.72 43.70 91.22 44.42 27.0 Not Reported 3.80 NE 2.01 SE 4.70 NW No 0.000 No Precipitation 06/12/2019 08:05 PM 06/12/2019 08:24 PM 0.000 0.000 0.000 0.000 0.000 Not Reported Not Reported
07/12/2019 11:49 AM 80.42 59.90 44.06 91.22 44.42 27.0 Not Reported 2.46 W 1.34 W 4.70 NW No 0.000 No Precipitation 06/12/2019 08:05 PM 06/12/2019 08:24 PM 0.000 0.000 0.000 0.000 0.000 Not Reported Not Reported
07/12/2019 11:54 AM 80.24 60.44 45.86 91.22 44.42 29.0 Not Reported 4.03 W 4.25 W 5.14 NW No 0.000 No Precipitation 06/12/2019 08:05 PM 06/12/2019 08:24 PM 0.000 0.000 0.000 0.000 0.000 Not Reported Not Reported
07/12/2019 11:59 AM 80.06 60.08 44.96 91.22 44.42 28.0 Not Reported 4.25 W 4.47 NW 5.14 NW No 0.000 No Precipitation 06/12/2019 08:05 PM 06/12/2019 08:24 PM 0.000 0.000 0.000 0.000 0.000 Not Reported Not Reported
07/12/2019 12:04 PM 81.68 60.80 45.14 91.22 44.42 27.0 Not Reported 3.58 NW 3.13 NW 5.37 NW No 0.000 No Precipitation 06/12/2019 08:05 PM 06/12/2019 08:24 PM 0.000 0.000 0.000 0.000 0.000 Not Reported Not Reported
07/12/2019 12:09 PM 81.32 60.26 44.06 91.22 44.42 26.0 Not Reported 2.68 NW 4.70 NW 5.37 NW No 0.000 No Precipitation 06/12/2019 08:05 PM 06/12/2019 08:24 PM 0.000 0.000 0.000 0.000 0.000 Not Reported Not Reported
07/12/2019 12:14 PM 81.32 59.54 42.44 91.22 44.42 25.0 Not Reported 3.36 NW 3.36 W 4.92 NW No 0.000 No Precipitation 06/12/2019 08:05 PM 06/12/2019 08:24 PM 0.000 0.000 0.000 0.000 0.000 Not Reported Not Reported
07/12/2019 12:19 PM 82.04 61.16 46.04 91.22 44.42 28.0 Not Reported 1.34 W 2.68 NW 4.92 NW No 0.000 No Precipitation 06/12/2019 08:05 PM 06/12/2019 08:24 PM 0.000 0.000 0.000 0.000 0.000 Not Reported Not Reported
07/12/2019 12:24 PM 82.76 60.26 42.62 91.22 44.42 24.0 Not Reported 3.36 N 3.58 N 5.14 NW No 0.000 No Precipitation 06/12/2019 08:05 PM 06/12/2019 08:24 PM 0.000 0.000 0.000 0.000 0.000 Not Reported Not Reported
07/12/2019 12:29 PM 83.48 60.62 43.16 91.22 44.42 24.0 Not Reported 2.01 NW 6.26 N 5.14 NW No 0.000 No Precipitation 06/12/2019 08:05 PM 06/12/2019 08:24 PM 0.000 0.000 0.000 0.000 0.000 Not Reported Not Reported
07/12/2019 12:34 PM 83.48 60.80 43.70 91.22 44.42 24.0 Not Reported 3.13 NE 1.12 E 6.26 N No 0.000 No Precipitation 06/12/2019 08:05 PM 06/12/2019 08:24 PM 0.000 0.000 0.000 0.000 0.000 Not Reported Not Reported
07/12/2019 12:39 PM 84.02 60.62 42.44 91.22 44.42 23.0 Not Reported 3.36 N 4.47 E 6.26 N No 0.000 No Precipitation 06/12/2019 08:05 PM 06/12/2019 08:24 PM 0.000 0.000 0.000 0.000 0.000 Not Reported Not Reported
07/12/2019 12:44 PM 84.02 61.34 44.42 91.22 44.42 24.0 Not Reported 4.47 NW 4.70 N 6.93 NW No 0.000 No Precipitation 06/12/2019 08:05 PM 06/12/2019 08:24 PM 0.000 0.000 0.000 0.000 0.000 Not Reported Not Reported
07/12/2019 12:49 PM 83.84 61.34 44.96 91.22 44.42 25.0 Not Reported 4.03 NW 5.59 W 6.93 NW No 0.000 No Precipitation 06/12/2019 08:05 PM 06/12/2019 08:24 PM 0.000 0.000 0.000 0.000 0.000 Not Reported Not Reported
07/12/2019 12:54 PM 84.02 61.52 44.78 91.22 44.42 25.0 Not Reported 2.91 SW 2.91 W 5.59 W No 0.000 No Precipitation 06/12/2019 08:05 PM 06/12/2019 08:24 PM 0.000 0.000 0.000 0.000 0.000 Not Reported Not Reported
07/12/2019 12:59 PM 84.20 62.42 46.94 91.22 44.42 27.0 Not Reported 3.58 W 5.14 NW 5.59 W No 0.000 No Precipitation 06/12/2019 08:05 PM 06/12/2019 08:24 PM 0.000 0.000 0.000 0.000 0.000 Not Reported Not Reported
07/12/2019 01:04 PM 84.02 61.34 44.78 91.22 44.42 25.0 Not Reported 4.47 W 3.58 SW 5.37 NW No 0.000 No Precipitation 06/12/2019 08:05 PM 06/12/2019 08:24 PM 0.000 0.000 0.000 0.000 0.000 Not Reported Not Reported
07/12/2019 01:09 PM 84.56 62.24 46.40 91.22 44.42 26.0 Not Reported 4.25 W 3.80 W 5.37 NW No 0.000 No Precipitation 06/12/2019 08:05 PM 06/12/2019 08:24 PM 0.000 0.000 0.000 0.000 0.000 Not Reported Not Reported
07/12/2019 01:14 PM 84.92 60.80 41.90 91.22 44.42 22.0 Not Reported 4.25 NW 6.04 NW 5.59 W No 0.000 No Precipitation 06/12/2019 08:05 PM 06/12/2019 08:24 PM 0.000 0.000 0.000 0.000 0.000 Not Reported Not Reported
07/12/2019 01:19 PM 85.10 61.16 42.98 91.22 44.42 22.0 Not Reported 6.71 N 5.37 NW 5.59 W No 0.000 No Precipitation 06/12/2019 08:05 PM 06/12/2019 08:24 PM 0.000 0.000 0.000 0.000 0.000 Not Reported Not Reported
07/12/2019 01:24 PM 85.82 60.98 41.72 91.22 44.42 21.0 Not Reported 4.70 N 2.24 NE 8.72 N No 0.000 No Precipitation 06/12/2019 08:05 PM 06/12/2019 08:24 PM 0.000 0.000 0.000 0.000 0.000 Not Reported Not Reported
07/12/2019 01:29 PM 86.36 61.88 43.34 91.22 44.42 22.0 Not Reported 1.12 SE 3.36 W 8.72 N No 0.000 No Precipitation 06/12/2019 08:05 PM 06/12/2019 08:24 PM 0.000 0.000 0.000 0.000 0.000 Not Reported Not Reported
07/12/2019 01:34 PM 85.64 60.98 41.54 91.22 44.42 21.0 Not Reported 3.80 W 3.58 W 5.14 NW No 0.000 No Precipitation 06/12/2019 08:05 PM 06/12/2019 08:24 PM 0.000 0.000 0.000 0.000 0.000 Not Reported Not Reported
07/12/2019 01:39 PM 87.44 63.86 47.84 91.22 44.42 25.0 Not Reported 1.57 SE 2.68 NW 5.14 NW No 0.000 No Precipitation 06/12/2019 08:05 PM 06/12/2019 08:24 PM 0.000 0.000 0.000 0.000 0.000 Not Reported Not Reported
07/12/2019 01:44 PM 87.26 61.52 41.36 91.22 44.42 20.0 Not Reported 4.25 N 6.26 NW 5.59 NW No 0.000 No Precipitation 06/12/2019 08:05 PM 06/12/2019 08:24 PM 0.000 0.000 0.000 0.000 0.000 Not Reported Not Reported
07/12/2019 01:49 PM 85.64 63.14 47.66 91.22 44.42 26.0 Not Reported 4.70 NW 4.70 NW 5.59 NW No 0.000 No Precipitation 06/12/2019 08:05 PM 06/12/2019 08:24 PM 0.000 0.000 0.000 0.000 0.000 Not Reported Not Reported
07/12/2019 01:54 PM 86.90 61.70 42.62 91.22 44.42 21.0 Not Reported 2.91 W 0.22 NE 7.83 NW No 0.000 No Precipitation 06/12/2019 08:05 PM 06/12/2019 08:24 PM 0.000 0.000 0.000 0.000 0.000 Not Reported Not Reported
07/12/2019 01:59 PM 88.16 61.88 41.54 91.22 44.42 19.0 Not Reported 3.13 NE 3.58 E 7.83 NW No 0.000 No Precipitation 06/12/2019 08:05 PM 06/12/2019 08:24 PM 0.000 0.000 0.000 0.000 0.000 Not Reported Not Reported
07/12/2019 02:04 PM 88.34 62.42 42.80 91.22 44.42 20.0 Not Reported 1.57 E 2.68 E 4.03 W No 0.000 No Precipitation 06/12/2019 08:05 PM 06/12/2019 08:24 PM 0.000 0.000 0.000 0.000 0.000 Not Reported Not Reported
07/12/2019 02:09 PM 88.34 61.70 41.00 91.22 44.42 19.0 Not Reported 2.01 NE 1.79 NE 4.03 W No 0.000 No Precipitation 06/12/2019 08:05 PM 06/12/2019 08:24 PM 0.000 0.000 0.000 0.000 0.000 Not Reported Not Reported
07/12/2019 02:14 PM 89.42 61.88 40.28 91.22 44.42 17.0 Not Reported 0.89 SE 2.01 SW 3.80 NE No 0.000 No Precipitation 06/12/2019 08:05 PM 06/12/2019 08:24 PM 0.000 0.000 0.000 0.000 0.000 Not Reported Not Reported
07/12/2019 02:19 PM 89.24 62.96 43.88 91.22 44.42 20.0 Not Reported 1.34 S 1.12 NE 3.80 NE No 0.000 No Precipitation 06/12/2019 08:05 PM 06/12/2019 08:24 PM 0.000 0.000 0.000 0.000 0.000 Not Reported Not Reported
07/12/2019 02:24 PM 89.60 63.14 41.72 91.22 44.42 20.0 Not Reported 2.46 SE 6.49 NW 3.80 SW No 0.000 No Precipitation 06/12/2019 08:05 PM 06/12/2019 08:24 PM 0.000 0.000 0.000 0.000 0.000 Not Reported Not Reported
07/12/2019 02:29 PM 88.52 62.24 42.26 91.22 44.42 20.0 Not Reported 6.04 N 4.03 NE 3.80 SW No 0.000 No Precipitation 06/12/2019 08:05 PM 06/12/2019 08:24 PM 0.000 0.000 0.000 0.000 0.000 Not Reported Not Reported
07/12/2019 02:34 PM 88.52 62.78 43.70 91.22 44.42 21.0 Not Reported 4.03 NE 4.47 NE 7.61 NW No 0.000 No Precipitation 06/12/2019 08:05 PM 06/12/2019 08:24 PM 0.000 0.000 0.000 0.000 0.000 Not Reported Not Reported
07/12/2019 02:39 PM 89.42 61.88 40.28 91.22 44.42 17.0 Not Reported 6.04 N 2.46 NE 7.61 NW No 0.000 No Precipitation 06/12/2019 08:05 PM 06/12/2019 08:24 PM 0.000 0.000 0.000 0.000 0.000 Not Reported Not Reported
07/12/2019 02:44 PM 89.42 61.88 40.10 91.22 44.42 17.0 Not Reported 4.25 W 4.47 N 8.95 N No 0.000 No Precipitation 06/12/2019 08:05 PM 06/12/2019 08:24 PM 0.000 0.000 0.000 0.000 0.000 Not Reported Not Reported
07/12/2019 02:49 PM 89.60 62.24 41.36 91.22 44.42 18.0 Not Reported 5.37 N 2.46 N 8.95 N No 0.000 No Precipitation 06/12/2019 08:05 PM 06/12/2019 08:24 PM 0.000 0.000 0.000 0.000 0.000 Not Reported Not Reported
07/12/2019 02:59 PM 90.14 62.42 41.36 91.22 44.42 18.0 Not Reported 4.92 N 6.26 N 7.16 N No 0.000 No Precipitation 06/12/2019 08:05 PM 06/12/2019 08:24 PM 0.000 0.000 0.000 0.000 0.000 Not Reported Not Reported
07/12/2019 03:04 PM 90.32 62.60 41.18 91.22 44.42 18.0 Not Reported 7.16 N 6.93 NW 8.50 N No 0.000 No Precipitation 06/12/2019 08:05 PM 06/12/2019 08:24 PM 0.000 0.000 0.000 0.000 0.000 Not Reported Not Reported
07/12/2019 03:09 PM 89.96 61.88 39.92 91.22 44.42 17.0 Not Reported 4.70 N 2.24 NW 8.50 N No 0.000 No Precipitation 06/12/2019 08:05 PM 06/12/2019 08:24 PM 0.000 0.000 0.000 0.000 0.000 Not Reported Not Reported
07/12/2019 03:14 PM 90.14 61.70 38.66 91.22 44.42 16.0 Not Reported 2.24 NE 2.91 N 11.41 NW No 0.000 No Precipitation 06/12/2019 08:05 PM 06/12/2019 08:24 PM 0.000 0.000 0.000 0.000 0.000 Not Reported Not Reported
07/12/2019 03:19 PM 89.78 62.06 40.46 91.22 44.42 17.0 Not Reported 5.59 NE 6.04 NE 11.41 NW No 0.000 No Precipitation 06/12/2019 08:05 PM 06/12/2019 08:24 PM 0.000 0.000 0.000 0.000 0.000 Not Reported Not Reported
07/12/2019 03:24 PM 89.78 61.52 38.84 91.22 44.42 16.0 Not Reported 13.20 NE 8.05 NE 8.05 NE No 0.000 No Precipitation 06/12/2019 08:05 PM 06/12/2019 08:24 PM 0.000 0.000 0.000 0.000 0.000 Not Reported Not Reported
07/12/2019 03:29 PM 90.86 62.78 41.72 91.22 44.42 18.0 Not Reported 3.80 SE 7.16 W 8.05 NE No 0.000 No Precipitation 06/12/2019 08:05 PM 06/12/2019 08:24 PM 0.000 0.000 0.000 0.000 0.000 Not Reported Not Reported
07/12/2019 03:34 PM 90.68 62.60 41.00 91.22 44.42 17.0 Not Reported 14.09 SW 6.49 SW 18.79 SW No 0.000 No Precipitation 06/12/2019 08:05 PM 06/12/2019 08:24 PM 0.000 0.000 0.000 0.000 0.000 Not Reported Not Reported
07/12/2019 03:39 PM 91.40 63.50 43.34 91.22 44.42 18.0 Not Reported 6.04 SE 2.01 NW 18.79 SW No 0.000 No Precipitation 06/12/2019 08:05 PM 06/12/2019 08:24 PM 0.000 0.000 0.000 0.000 0.000 Not Reported Not Reported
07/12/2019 03:44 PM 91.94 64.40 44.06 91.22 44.42 19.0 Not Reported 3.58 W 1.12 SW 16.33 SW No 0.000 No Precipitation 06/12/2019 08:05 PM 06/12/2019 08:24 PM 0.000 0.000 0.000 0.000 0.000 Not Reported Not Reported
07/12/2019 03:49 PM 91.40 62.96 41.18 91.22 44.42 17.0 Not Reported 6.26 NW 5.59 N 16.33 SW No 0.000 No Precipitation 06/12/2019 08:05 PM 06/12/2019 08:24 PM 0.000 0.000 0.000 0.000 0.000 Not Reported Not Reported
07/12/2019 03:54 PM 90.50 64.40 46.40 91.22 44.42 21.0 Not Reported 5.59 NW 1.57 NW 7.61 NW No 0.000 No Precipitation 06/12/2019 08:05 PM 06/12/2019 08:24 PM 0.000 0.000 0.000 0.000 0.000 Not Reported Not Reported
07/12/2019 03:59 PM 90.68 62.42 40.82 91.22 44.42 17.0 Not Reported 8.72 W 9.62 W 7.61 NW No 0.000 No Precipitation 06/12/2019 08:05 PM 06/12/2019 08:24 PM 0.000 0.000 0.000 0.000 0.000 Not Reported Not Reported
07/12/2019 04:04 PM 90.68 62.96 42.08 91.22 44.42 18.0 Not Reported 7.16 W 9.62 W 12.53 W No 0.000 No Precipitation 06/12/2019 08:05 PM 06/12/2019 08:24 PM 0.000 0.000 0.000 0.000 0.000 Not Reported Not Reported
07/12/2019 04:09 PM 90.50 64.22 46.22 91.22 44.42 21.0 Not Reported 11.18 SW 10.07 W 12.53 W No 0.000 No Precipitation 06/12/2019 08:05 PM 06/12/2019 08:24 PM 0.000 0.000 0.000 0.000 0.000 Not Reported Not Reported
07/12/2019 04:14 PM 90.68 62.42 40.46 91.22 44.42 17.0 Not Reported 10.07 W 9.40 SW 14.54 SW No 0.000 No Precipitation 06/12/2019 08:05 PM 06/12/2019 08:24 PM 0.000 0.000 0.000 0.000 0.000 Not Reported Not Reported
07/12/2019 04:19 PM 91.40 62.78 40.82 91.22 44.42 17.0 Not Reported 4.70 SW 9.40 W 14.54 SW No 0.000 No Precipitation 06/12/2019 08:05 PM 06/12/2019 08:24 PM 0.000 0.000 0.000 0.000 0.000 Not Reported Not Reported
07/12/2019 04:24 PM 91.22 62.78 40.82 91.22 44.42 17.0 Not Reported 8.28 W 1.57 W 14.99 SW No 0.000 No Precipitation 06/12/2019 08:05 PM 06/12/2019 08:24 PM 0.000 0.000 0.000 0.000 0.000 Not Reported Not Reported
07/12/2019 04:29 PM 91.76 62.96 40.64 91.22 44.42 16.0 Not Reported 4.03 SW 7.61 S 14.99 SW No 0.000 No Precipitation 06/12/2019 08:05 PM 06/12/2019 08:24 PM 0.000 0.000 0.000 0.000 0.000 Not Reported Not Reported
07/12/2019 04:34 PM 91.22 62.78 41.00 91.22 44.42 17.0 Not Reported 6.93 S 8.05 S 10.51 SW No 0.000 No Precipitation 06/12/2019 08:05 PM 06/12/2019 08:24 PM 0.000 0.000 0.000 0.000 0.000 Not Reported Not Reported
07/12/2019 04:39 PM 91.76 63.86 43.70 91.22 44.42 19.0 Not Reported 3.36 S 9.40 S 10.51 SW No 0.000 No Precipitation 06/12/2019 08:05 PM 06/12/2019 08:24 PM 0.000 0.000 0.000 0.000 0.000 Not Reported Not Reported
07/12/2019 04:44 PM 92.30 64.22 44.24 91.22 44.42 19.0 Not Reported 4.92 S 3.13 S 10.07 S No 0.000 No Precipitation 06/12/2019 08:05 PM 06/12/2019 08:24 PM 0.000 0.000 0.000 0.000 0.000 Not Reported Not Reported
07/12/2019 04:49 PM 91.76 62.24 39.02 91.22 44.42 15.0 Not Reported 6.04 SW 1.12 W 10.07 S No 0.000 No Precipitation 06/12/2019 08:05 PM 06/12/2019 08:24 PM 0.000 0.000 0.000 0.000 0.000 Not Reported Not Reported
07/12/2019 04:54 PM 92.12 62.78 39.92 91.22 44.42 16.0 Not Reported 4.47 SW 13.65 SW 10.74 SW No 0.000 No Precipitation 06/12/2019 08:05 PM 06/12/2019 08:24 PM 0.000 0.000 0.000 0.000 0.000 Not Reported Not Reported
07/12/2019 04:59 PM 92.30 63.14 41.36 91.22 44.42 17.0 Not Reported 5.59 W 3.36 NE 10.74 SW No 0.000 No Precipitation 06/12/2019 08:05 PM 06/12/2019 08:24 PM 0.000 0.000 0.000 0.000 0.000 Not Reported Not Reported
07/12/2019 05:04 PM 91.22 61.70 37.40 91.22 44.42 15.0 Not Reported 8.72 W 4.70 S 13.65 SW No 0.000 No Precipitation 06/12/2019 08:05 PM 06/12/2019 08:24 PM 0.000 0.000 0.000 0.000 0.000 Not Reported Not Reported
07/12/2019 05:09 PM 90.50 61.16 36.68 91.22 44.42 15.0 Not Reported 13.42 SW 18.57 SW 13.65 SW No 0.000 No Precipitation 06/12/2019 08:05 PM 06/12/2019 08:24 PM 0.000 0.000 0.000 0.000 0.000 Not Reported Not Reported
07/12/2019 05:14 PM 90.50 63.14 42.98 91.22 44.42 19.0 Not Reported 7.83 W 5.59 SW 18.79 W No 0.000 No Precipitation 06/12/2019 08:05 PM 06/12/2019 08:24 PM 0.000 0.000 0.000 0.000 0.000 Not Reported Not Reported
07/12/2019 05:19 PM 92.12 63.14 41.00 91.22 44.42 16.0 Not Reported 6.71 SW 4.70 S 18.79 W No 0.000 No Precipitation 06/12/2019 08:05 PM 06/12/2019 08:24 PM 0.000 0.000 0.000 0.000 0.000 Not Reported Not Reported
07/12/2019 05:24 PM 91.76 62.60 40.10 91.22 44.42 16.0 Not Reported 5.14 SW 7.61 SW 9.84 SW No 0.000 No Precipitation 06/12/2019 08:05 PM 06/12/2019 08:24 PM 0.000 0.000 0.000 0.000 0.000 Not Reported Not Reported
07/12/2019 05:29 PM 91.40 63.86 44.06 91.22 44.42 19.0 Not Reported 7.16 W 6.93 S 9.84 SW No 0.000 No Precipitation 06/12/2019 08:05 PM 06/12/2019 08:24 PM 0.000 0.000 0.000 0.000 0.000 Not Reported Not Reported
07/12/2019 05:34 PM 91.04 62.60 40.46 91.22 44.42 17.0 Not Reported 8.95 W 11.18 SW 10.07 W No 0.000 No Precipitation 06/12/2019 08:05 PM 06/12/2019 08:24 PM 0.000 0.000 0.000 0.000 0.000 Not Reported Not Reported
07/12/2019 05:39 PM 90.86 62.42 40.10 91.22 44.42 17.0 Not Reported 12.53 SW 4.25 W 10.07 W No 0.000 No Precipitation 06/12/2019 08:05 PM 06/12/2019 08:24 PM 0.000 0.000 0.000 0.000 0.000 Not Reported Not Reported
07/12/2019 05:44 PM 90.86 64.04 45.32 91.22 44.42 20.0 Not Reported 10.96 W 8.50 W 14.99 SW No 0.000 No Precipitation 06/12/2019 08:05 PM 06/12/2019 08:24 PM 0.000 0.000 0.000 0.000 0.000 Not Reported Not Reported
07/12/2019 05:49 PM 91.22 62.42 44.78 91.22 44.42 16.0 Not Reported 7.61 SW 6.71 SW 14.99 SW No 0.000 No Precipitation 06/12/2019 08:05 PM 06/12/2019 08:24 PM 0.000 0.000 0.000 0.000 0.000 Not Reported Not Reported
07/12/2019 05:54 PM 90.14 61.34 37.94 91.22 44.42 15.0 Not Reported 7.83 W 10.74 W 13.42 SW No 0.000 No Precipitation 06/12/2019 08:05 PM 06/12/2019 08:24 PM 0.000 0.000 0.000 0.000 0.000 Not Reported Not Reported
07/12/2019 05:59 PM 90.14 63.14 43.16 91.22 44.42 19.0 Not Reported 8.05 W 6.93 W 13.42 SW No 0.000 No Precipitation 06/12/2019 08:05 PM 06/12/2019 08:24 PM 0.000 0.000 0.000 0.000 0.000 Not Reported Not Reported
07/12/2019 06:04 PM 90.50 60.80 35.24 91.22 44.42 14.0 Not Reported 6.04 W 2.46 W 11.63 W No 0.000 No Precipitation 06/12/2019 08:05 PM 06/12/2019 08:24 PM 0.000 0.000 0.000 0.000 0.000 Not Reported Not Reported
07/12/2019 06:09 PM 90.32 60.98 35.96 91.22 44.42 14.0 Not Reported 4.70 W 0.67 NW 11.63 W No 0.000 No Precipitation 06/12/2019 08:05 PM 06/12/2019 08:24 PM 0.000 0.000 0.000 0.000 0.000 Not Reported Not Reported
07/12/2019 06:14 PM 89.96 62.24 40.82 91.22 44.42 17.0 Not Reported 8.05 SW 12.08 SW 8.05 W No 0.000 No Precipitation 06/12/2019 08:05 PM 06/12/2019 08:24 PM 0.000 0.000 0.000 0.000 0.000 Not Reported Not Reported
07/12/2019 06:19 PM 89.78 61.70 39.38 91.22 44.42 17.0 Not Reported 11.63 SW 7.61 SW 8.05 W No 0.000 No Precipitation 06/12/2019 08:05 PM 06/12/2019 08:24 PM 0.000 0.000 0.000 0.000 0.000 Not Reported Not Reported
07/12/2019 06:24 PM 89.60 60.44 34.88 91.22 44.42 14.0 Not Reported 4.92 W 5.37 NW 12.75 SW No 0.000 No Precipitation 06/12/2019 08:05 PM 06/12/2019 08:24 PM 0.000 0.000 0.000 0.000 0.000 Not Reported Not Reported
07/12/2019 06:29 PM 90.86 61.16 35.96 91.22 44.42 14.0 Not Reported 5.82 SW 7.16 W 12.75 SW No 0.000 No Precipitation 06/12/2019 08:05 PM 06/12/2019 08:24 PM 0.000 0.000 0.000 0.000 0.000 Not Reported Not Reported
07/12/2019 06:34 PM 89.24 60.98 37.94 91.22 44.42 16.0 Not Reported 7.83 SW 10.29 SW 12.08 W No 0.000 No Precipitation 06/12/2019 08:05 PM 06/12/2019 08:24 PM 0.000 0.000 0.000 0.000 0.000 Not Reported Not Reported
07/12/2019 06:39 PM 89.42 60.62 36.14 91.22 44.42 15.0 Not Reported 11.41 SW 9.17 SW 12.08 W No 0.000 No Precipitation 06/12/2019 08:05 PM 06/12/2019 08:24 PM 0.000 0.000 0.000 0.000 0.000 Not Reported Not Reported
07/12/2019 06:44 PM 89.78 60.44 34.88 91.22 44.42 14.0 Not Reported 8.95 SW 10.74 SW 14.76 SW No 0.000 No Precipitation 06/12/2019 08:05 PM 06/12/2019 08:24 PM 0.000 0.000 0.000 0.000 0.000 Not Reported Not Reported
07/12/2019 06:49 PM 89.06 59.90 34.16 91.22 44.42 14.0 Not Reported 10.96 SW 12.97 SW 14.76 SW No 0.000 No Precipitation 06/12/2019 08:05 PM 06/12/2019 08:24 PM 0.000 0.000 0.000 0.000 0.000 Not Reported Not Reported
07/12/2019 06:54 PM 88.70 61.52 39.74 91.22 44.42 18.0 Not Reported 12.53 W 9.62 SW 14.99 W No 0.000 No Precipitation 06/12/2019 08:05 PM 06/12/2019 08:24 PM 0.000 0.000 0.000 0.000 0.000 Not Reported Not Reported
07/12/2019 06:59 PM 88.52 59.90 35.06 91.22 44.42 15.0 Not Reported 12.30 SW 12.53 SW 14.99 W No 0.000 No Precipitation 06/12/2019 08:05 PM 06/12/2019 08:24 PM 0.000 0.000 0.000 0.000 0.000 Not Reported Not Reported
07/12/2019 07:04 PM 88.52 59.72 33.98 91.22 44.42 14.0 Not Reported 14.09 SW 13.42 SW 14.54 SW No 0.000 No Precipitation 06/12/2019 08:05 PM 06/12/2019 08:24 PM 0.000 0.000 0.000 0.000 0.000 Not Reported Not Reported
07/12/2019 07:09 PM 88.16 59.00 32.00 91.22 44.42 13.0 Not Reported 11.41 SW 15.66 W 14.54 SW No 0.000 No Precipitation 06/12/2019 08:05 PM 06/12/2019 08:24 PM 0.000 0.000 0.000 0.000 0.000 Not Reported Not Reported
07/12/2019 07:14 PM 87.80 58.82 31.64 91.22 44.42 13.0 Not Reported 13.42 SW 17.00 W 17.45 SW No 0.000 No Precipitation 06/12/2019 08:05 PM 06/12/2019 08:24 PM 0.000 0.000 0.000 0.000 0.000 Not Reported Not Reported
07/12/2019 07:19 PM 87.44 59.54 34.70 91.22 44.42 15.0 Not Reported 13.20 W 11.86 W 17.45 SW No 0.000 No Precipitation 06/12/2019 08:05 PM 06/12/2019 08:24 PM 0.000 0.000 0.000 0.000 0.000 Not Reported Not Reported
07/12/2019 07:24 PM 88.16 59.18 32.36 91.22 44.42 13.0 Not Reported 11.41 SW 10.74 W 17.00 W No 0.000 No Precipitation 06/12/2019 08:05 PM 06/12/2019 08:24 PM 0.000 0.000 0.000 0.000 0.000 Not Reported Not Reported
07/12/2019 07:29 PM 87.44 59.00 32.72 91.22 44.42 14.0 Not Reported 11.86 SW 16.11 SW 17.00 W No 0.000 No Precipitation 06/12/2019 08:05 PM 06/12/2019 08:24 PM 0.000 0.000 0.000 0.000 0.000 Not Reported Not Reported
07/12/2019 07:34 PM 87.44 59.36 34.52 91.22 44.42 15.0 Not Reported 10.96 SW 10.74 SW 16.33 SW No 0.000 No Precipitation 06/12/2019 08:05 PM 06/12/2019 08:24 PM 0.000 0.000 0.000 0.000 0.000 Not Reported Not Reported
07/12/2019 07:39 PM 87.44 59.54 34.88 91.22 44.42 15.0 Not Reported 10.29 SW 8.95 W 16.33 SW No 0.000 No Precipitation 06/12/2019 08:05 PM 06/12/2019 08:24 PM 0.000 0.000 0.000 0.000 0.000 Not Reported Not Reported
07/12/2019 07:44 PM 86.54 58.64 32.54 91.22 44.42 14.0 Not Reported 12.75 SW 12.08 W 14.76 W No 0.000 No Precipitation 06/12/2019 08:05 PM 06/12/2019 08:24 PM 0.000 0.000 0.000 0.000 0.000 Not Reported Not Reported
07/12/2019 07:49 PM 86.54 59.00 33.98 91.22 44.42 15.0 Not Reported 12.75 W 11.18 W 14.76 W No 0.000 No Precipitation 06/12/2019 08:05 PM 06/12/2019 08:24 PM 0.000 0.000 0.000 0.000 0.000 Not Reported Not Reported
07/12/2019 07:54 PM 86.00 58.46 33.26 91.22 44.42 15.0 Not Reported 9.40 SW 11.18 SW 14.32 SW No 0.000 No Precipitation 06/12/2019 08:05 PM 06/12/2019 08:24 PM 0.000 0.000 0.000 0.000 0.000 Not Reported Not Reported
07/12/2019 07:59 PM 86.00 59.36 36.32 91.22 44.42 17.0 Not Reported 7.16 SW 4.25 W 14.32 SW No 0.000 No Precipitation 06/12/2019 08:05 PM 06/12/2019 08:24 PM 0.000 0.000 0.000 0.000 0.000 Not Reported Not Reported
07/12/2019 08:04 PM 86.18 59.18 35.42 91.22 44.42 16.0 Not Reported 7.38 W 7.61 W 12.75 W No 0.000 No Precipitation 06/12/2019 08:05 PM 06/12/2019 08:24 PM 0.000 0.000 0.000 0.000 0.000 Not Reported Not Reported
07/12/2019 08:09 PM 85.64 59.18 35.96 91.22 44.42 17.0 Not Reported 8.95 W 8.95 SW 12.75 W No 0.000 No Precipitation 06/12/2019 08:05 PM 06/12/2019 08:24 PM 0.000 0.000 0.000 0.000 0.000 Not Reported Not Reported
07/12/2019 08:14 PM 85.82 59.54 36.68 91.22 44.42 17.0 Not Reported 9.17 W 8.95 SW 10.74 W No 0.000 No Precipitation 06/12/2019 08:05 PM 06/12/2019 08:24 PM 0.000 0.000 0.000 0.000 0.000 Not Reported Not Reported
07/12/2019 08:19 PM 86.00 59.36 36.32 91.22 44.42 17.0 Not Reported 6.93 SW 4.25 SW 10.74 W No 0.000 No Precipitation 06/12/2019 08:05 PM 06/12/2019 08:24 PM 0.000 0.000 0.000 0.000 0.000 Not Reported Not Reported
07/12/2019 08:24 PM 85.64 60.08 38.84 91.22 44.42 19.0 Not Reported 7.16 W 8.50 W 10.96 SW No 0.000 No Precipitation 06/12/2019 08:05 PM 06/12/2019 08:24 PM 0.000 0.000 0.000 0.000 0.000 Not Reported Not Reported
07/12/2019 08:29 PM 85.46 59.54 37.58 91.22 44.42 18.0 Not Reported 5.82 W 3.80 W 10.96 SW No 0.000 No Precipitation 06/12/2019 08:05 PM 06/12/2019 08:24 PM 0.000 0.000 0.000 0.000 0.000 Not Reported Not Reported
07/12/2019 08:34 PM 85.64 59.90 38.30 91.22 44.42 18.0 Not Reported 3.13 SW 4.47 SW 10.51 W No 0.000 No Precipitation 06/12/2019 08:05 PM 06/12/2019 08:24 PM 0.000 0.000 0.000 0.000 0.000 Not Reported Not Reported
07/12/2019 08:39 PM 85.46 59.90 38.48 91.22 44.42 18.0 Not Reported 2.91 SW 2.68 W 10.51 W No 0.000 No Precipitation 06/12/2019 08:05 PM 06/12/2019 08:24 PM 0.000 0.000 0.000 0.000 0.000 Not Reported Not Reported
07/12/2019 08:44 PM 84.92 59.90 39.20 91.22 44.42 19.0 Not Reported 2.24 NW 5.82 W 6.93 SW No 0.000 No Precipitation 06/12/2019 08:05 PM 06/12/2019 08:24 PM 0.000 0.000 0.000 0.000 0.000 Not Reported Not Reported
07/12/2019 08:49 PM 83.84 59.72 42.08 91.22 44.42 21.0 Not Reported 4.92 W 5.82 W 6.93 SW No 0.000 No Precipitation 06/12/2019 08:05 PM 06/12/2019 08:24 PM 0.000 0.000 0.000 0.000 0.000 Not Reported Not Reported
07/12/2019 08:54 PM 84.02 59.90 40.46 91.22 44.42 21.0 Not Reported 4.70 W 2.46 W 6.04 NW No 0.000 No Precipitation 06/12/2019 08:05 PM 06/12/2019 08:24 PM 0.000 0.000 0.000 0.000 0.000 Not Reported Not Reported
07/12/2019 08:59 PM 82.58 59.90 42.26 91.22 44.42 24.0 Not Reported 4.47 W 3.13 W 6.04 NW No 0.000 No Precipitation 06/12/2019 08:05 PM 06/12/2019 08:24 PM 0.000 0.000 0.000 0.000 0.000 Not Reported Not Reported
07/12/2019 09:04 PM 82.58 59.36 40.64 91.22 44.42 22.0 Not Reported 5.37 W 3.80 NW 6.04 NW No 0.000 No Precipitation 06/12/2019 08:05 PM 06/12/2019 08:24 PM 0.000 0.000 0.000 0.000 0.000 Not Reported Not Reported
07/12/2019 09:09 PM 82.58 59.72 41.36 91.22 44.42 23.0 Not Reported 5.37 W 3.36 W 6.04 NW No 0.000 No Precipitation 06/12/2019 08:05 PM 06/12/2019 08:24 PM 0.000 0.000 0.000 0.000 0.000 Not Reported Not Reported
07/12/2019 09:14 PM 81.68 58.82 39.74 91.22 44.42 22.0 Not Reported 4.25 W 4.47 W 6.49 W No 0.000 No Precipitation 06/12/2019 08:05 PM 06/12/2019 08:24 PM 0.000 0.000 0.000 0.000 0.000 Not Reported Not Reported
07/12/2019 09:19 PM 79.70 58.28 40.46 91.22 44.42 24.0 Not Reported 5.37 W 6.04 W 6.49 W No 0.000 No Precipitation 06/12/2019 08:05 PM 06/12/2019 08:24 PM 0.000 0.000 0.000 0.000 0.000 Not Reported Not Reported
07/12/2019 09:24 PM 79.52 57.56 38.84 91.22 44.42 23.0 Not Reported 5.59 NW 8.50 NW 6.49 NW No 0.000 No Precipitation 06/12/2019 08:05 PM 06/12/2019 08:24 PM 0.000 0.000 0.000 0.000 0.000 Not Reported Not Reported
07/12/2019 09:29 PM 78.80 58.10 40.64 91.22 44.42 25.0 Not Reported 8.72 NW 8.50 NW 6.49 NW No 0.000 No Precipitation 06/12/2019 08:05 PM 06/12/2019 08:24 PM 0.000 0.000 0.000 0.000 0.000 Not Reported Not Reported
07/12/2019 09:34 PM 76.64 56.66 39.02 91.22 44.42 25.0 Not Reported 7.16 NW 7.61 NW 10.07 NW No 0.000 No Precipitation 06/12/2019 08:05 PM 06/12/2019 08:24 PM 0.000 0.000 0.000 0.000 0.000 Not Reported Not Reported
07/12/2019 09:39 PM 75.74 56.12 38.48 91.22 44.42 26.0 Not Reported 8.05 NW 7.16 NW 10.07 NW No 0.000 No Precipitation 06/12/2019 08:05 PM 06/12/2019 08:24 PM 0.000 0.000 0.000 0.000 0.000 Not Reported Not Reported
07/12/2019 09:44 PM 78.80 57.02 37.94 91.22 44.42 23.0 Not Reported 6.93 NW 6.93 NW 9.40 NW No 0.000 No Precipitation 06/12/2019 08:05 PM 06/12/2019 08:24 PM 0.000 0.000 0.000 0.000 0.000 Not Reported Not Reported
07/12/2019 09:49 PM 79.52 57.56 38.66 91.22 44.42 23.0 Not Reported 3.58 NW 6.26 NW 9.40 NW No 0.000 No Precipitation 06/12/2019 08:05 PM 06/12/2019 08:24 PM 0.000 0.000 0.000 0.000 0.000 Not Reported Not Reported
07/12/2019 09:54 PM 78.08 57.20 39.38 91.22 44.42 25.0 Not Reported 4.03 NW 3.58 NW 7.61 NW No 0.000 No Precipitation 06/12/2019 08:05 PM 06/12/2019 08:24 PM 0.000 0.000 0.000 0.000 0.000 Not Reported Not Reported
07/12/2019 09:59 PM 77.54 57.20 39.74 91.22 44.42 25.0 Not Reported 5.37 NW 5.82 NW 7.61 NW No 0.000 No Precipitation 06/12/2019 08:05 PM 06/12/2019 08:24 PM 0.000 0.000 0.000 0.000 0.000 Not Reported Not Reported
07/12/2019 10:04 PM 78.80 57.38 38.66 91.22 44.42 23.0 Not Reported 6.71 NW 4.70 NW 6.93 NW No 0.000 No Precipitation 06/12/2019 08:05 PM 06/12/2019 08:24 PM 0.000 0.000 0.000 0.000 0.000 Not Reported Not Reported
07/12/2019 10:09 PM 77.54 57.38 40.28 91.22 44.42 26.0 Not Reported 4.70 W 4.92 W 6.93 NW No 0.000 No Precipitation 06/12/2019 08:05 PM 06/12/2019 08:24 PM 0.000 0.000 0.000 0.000 0.000 Not Reported Not Reported
07/12/2019 10:14 PM 77.72 58.28 42.62 91.22 44.42 28.0 Not Reported 5.14 W 9.40 NW 7.38 NW No 0.000 No Precipitation 06/12/2019 08:05 PM 06/12/2019 08:24 PM 0.000 0.000 0.000 0.000 0.000 Not Reported Not Reported
07/12/2019 10:19 PM 78.62 58.64 42.80 91.22 44.42 28.0 Not Reported 7.16 W 6.04 W 7.38 NW No 0.000 No Precipitation 06/12/2019 08:05 PM 06/12/2019 08:24 PM 0.000 0.000 0.000 0.000 0.000 Not Reported Not Reported
07/12/2019 10:24 PM 78.98 58.82 42.80 91.22 44.42 27.0 Not Reported 6.49 W 6.49 NW 9.40 W No 0.000 No Precipitation 06/12/2019 08:05 PM 06/12/2019 08:24 PM 0.000 0.000 0.000 0.000 0.000 Not Reported Not Reported
07/12/2019 10:29 PM 77.90 59.00 44.06 91.22 44.42 30.0 Not Reported 3.58 W 4.70 NW 9.40 W No 0.000 No Precipitation 06/12/2019 08:05 PM 06/12/2019 08:24 PM 0.000 0.000 0.000 0.000 0.000 Not Reported Not Reported
07/12/2019 10:34 PM 77.00 58.82 44.96 91.22 44.42 32.0 Not Reported 4.25 W 3.36 W 8.72 W No 0.000 No Precipitation 06/12/2019 08:05 PM 06/12/2019 08:24 PM 0.000 0.000 0.000 0.000 0.000 Not Reported Not Reported
07/12/2019 10:39 PM 74.84 57.38 43.16 91.22 44.42 32.0 Not Reported 3.36 SE 6.49 NE 8.72 W No 0.000 No Precipitation 06/12/2019 08:05 PM 06/12/2019 08:24 PM 0.000 0.000 0.000 0.000 0.000 Not Reported Not Reported
07/12/2019 10:44 PM 74.12 57.56 44.42 91.22 44.42 34.0 Not Reported 4.70 S 3.80 S 6.49 NE No 0.000 No Precipitation 06/12/2019 08:05 PM 06/12/2019 08:24 PM 0.000 0.000 0.000 0.000 0.000 Not Reported Not Reported
07/12/2019 10:49 PM 70.88 56.66 45.50 91.22 44.42 40.0 Not Reported 6.04 S 5.14 S 6.49 NE No 0.000 No Precipitation 06/12/2019 08:05 PM 06/12/2019 08:24 PM 0.000 0.000 0.000 0.000 0.000 Not Reported Not Reported
07/12/2019 10:54 PM 67.82 55.76 46.22 91.22 44.42 45.0 Not Reported 6.49 S 6.26 S 7.38 SW No 0.000 No Precipitation 06/12/2019 08:05 PM 06/12/2019 08:24 PM 0.000 0.000 0.000 0.000 0.000 Not Reported Not Reported
07/12/2019 10:59 PM 69.98 55.76 43.88 91.22 44.42 38.0 Not Reported 6.93 SE 6.71 SE 7.38 SW No 0.000 No Precipitation 06/12/2019 08:05 PM 06/12/2019 08:24 PM 0.000 0.000 0.000 0.000 0.000 Not Reported Not Reported
07/12/2019 11:04 PM 68.90 55.94 45.68 91.22 44.42 43.0 Not Reported 6.04 SE 6.26 W 8.72 SE No 0.000 No Precipitation 06/12/2019 08:05 PM 06/12/2019 08:24 PM 0.000 0.000 0.000 0.000 0.000 Not Reported Not Reported
07/12/2019 11:09 PM 69.08 55.58 44.78 91.22 44.42 41.0 Not Reported 3.80 SW 4.03 SW 8.72 SE No 0.000 No Precipitation 06/12/2019 08:05 PM 06/12/2019 08:24 PM 0.000 0.000 0.000 0.000 0.000 Not Reported Not Reported
07/12/2019 11:14 PM 70.52 55.94 43.88 91.22 44.42 38.0 Not Reported 3.13 SW 2.01 SW 6.26 W No 0.000 No Precipitation 06/12/2019 08:05 PM 06/12/2019 08:24 PM 0.000 0.000 0.000 0.000 0.000 Not Reported Not Reported
07/12/2019 11:19 PM 68.18 55.76 46.04 91.22 44.42 45.0 Not Reported 3.58 S 4.25 S 6.26 W No 0.000 No Precipitation 06/12/2019 08:05 PM 06/12/2019 08:24 PM 0.000 0.000 0.000 0.000 0.000 Not Reported Not Reported
07/12/2019 11:24 PM 68.36 55.40 44.78 91.22 44.42 42.0 Not Reported 3.58 S 3.36 S 4.70 S No 0.000 No Precipitation 06/12/2019 08:05 PM 06/12/2019 08:24 PM 0.000 0.000 0.000 0.000 0.000 Not Reported Not Reported
07/12/2019 11:29 PM 68.00 55.40 45.14 91.22 44.42 43.0 Not Reported 3.58 S 3.58 S 4.70 S No 0.000 No Precipitation 06/12/2019 08:05 PM 06/12/2019 08:24 PM 0.000 0.000 0.000 0.000 0.000 Not Reported Not Reported
07/12/2019 11:34 PM 68.00 55.58 45.50 91.22 44.42 44.0 Not Reported 3.13 S 3.80 SW 4.25 SW No 0.000 No Precipitation 06/12/2019 08:05 PM 06/12/2019 08:24 PM 0.000 0.000 0.000 0.000 0.000 Not Reported Not Reported
07/12/2019 11:39 PM 71.06 56.48 44.78 91.22 44.42 38.0 Not Reported 3.58 SW 3.13 SW 4.25 SW No 0.000 No Precipitation 06/12/2019 08:05 PM 06/12/2019 08:24 PM 0.000 0.000 0.000 0.000 0.000 Not Reported Not Reported
07/12/2019 11:44 PM 69.98 56.12 45.14 91.22 44.42 40.0 Not Reported 4.25 S 3.58 S 4.25 SW No 0.000 No Precipitation 06/12/2019 08:05 PM 06/12/2019 08:24 PM 0.000 0.000 0.000 0.000 0.000 Not Reported Not Reported
07/12/2019 11:49 PM 68.72 55.58 45.14 91.22 44.42 42.0 Not Reported 4.92 S 4.25 S 4.25 SW No 0.000 No Precipitation 06/12/2019 08:05 PM 06/12/2019 08:24 PM 0.000 0.000 0.000 0.000 0.000 Not Reported Not Reported
07/12/2019 11:54 PM 65.84 54.68 45.68 91.22 44.42 47.0 Not Reported 5.59 SE 5.37 S 5.59 S No 0.000 No Precipitation 06/12/2019 08:05 PM 06/12/2019 08:24 PM 0.000 0.000 0.000 0.000 0.000 Not Reported Not Reported
07/12/2019 11:59 PM 64.58 54.32 45.86 91.22 44.42 50.0 Not Reported 3.36 S 3.58 S 5.59 S No 0.000 No Precipitation 06/12/2019 08:05 PM 06/12/2019 08:24 PM 0.000 0.000 0.000 0.000 0.000 Not Reported Not Reported